Time;durP1;ratioP1;P1;durP2;ratioP2;P2;SDS_P1;SDS_P2;PMS_P1;PMS_P2;Temp;Humidity;BMP_temperature;BMP_pressure;BME280_temperature;BME280_humidity;BME280_pressure;Samples;Min_cycle;Max_cycle;Signal;HPM_P1;HPM_P2
2021/04/13 00:02:29;;;;;;;6.40;5.73;;;;;;;3.99;67.74;102299.25;5018555;28;20430;-71
2021/04/13 00:05:22;;;;;;;5.27;4.83;;;;;;;4.15;66.96;102303.69;5018326;28;20413;-70
2021/04/13 00:07:48;;;;;;;6.10;5.50;;;;;;;4.01;67.36;102314.03;5017598;28;20707;-70
2021/04/13 00:10:32;;;;;;;6.83;6.10;;;;;;;4.39;65.89;102306.84;5018385;28;20426;-70
2021/04/13 00:12:59;;;;;;;7.03;5.83;;;;;;;4.24;67.47;102309.41;5018347;28;20469;-69
2021/04/13 00:15:28;;;;;;;6.87;5.83;;;;;;;4.14;67.21;102302.78;5001084;28;20724;-70
2021/04/13 00:17:55;;;;;;;7.43;6.17;;;;;;;3.99;67.25;102300.16;5016616;28;20452;-70
2021/04/13 00:20:33;;;;;;;7.33;6.37;;;;;;;4.26;67.28;102302.63;5003143;28;20478;-71
2021/04/13 00:22:58;;;;;;;6.90;6.20;;;;;;;3.92;67.39;102299.69;4981733;28;20426;-68
2021/04/13 00:25:28;;;;;;;6.60;6.00;;;;;;;4.02;68.45;102305.50;4998399;28;20489;-69
2021/04/13 00:27:53;;;;;;;7.60;6.13;;;;;;;3.73;67.67;102289.91;5000445;28;20265;-70
2021/04/13 00:30:23;;;;;;;7.77;6.30;;;;;;;3.87;67.75;102297.72;5018048;28;20505;-69
2021/04/13 00:32:55;;;;;;;9.93;6.23;;;;;;;3.88;68.99;102290.84;5018618;28;20170;-70
2021/04/13 00:35:32;;;;;;;6.57;5.87;;;;;;;3.83;68.55;102284.50;5018137;28;20796;-71
2021/04/13 00:38:22;;;;;;;9.00;6.47;;;;;;;3.80;69.07;102289.50;5016451;28;20758;-70
2021/04/13 00:40:49;;;;;;;7.30;6.17;;;;;;;3.73;68.66;102292.50;5017323;28;20799;-70
2021/04/13 00:43:16;;;;;;;7.70;6.93;;;;;;;3.86;67.99;102289.88;5018163;28;20682;-68
2021/04/13 00:45:43;;;;;;;9.10;6.40;;;;;;;3.84;68.54;102291.47;5018076;28;20418;-70
2021/04/13 00:48:10;;;;;;;6.27;5.47;;;;;;;4.01;67.19;102283.06;5016588;28;20487;-69
2021/04/13 00:50:41;;;;;;;9.17;6.20;;;;;;;3.69;68.68;102297.47;5017293;28;20398;-69
2021/04/13 00:53:09;;;;;;;7.30;6.10;;;;;;;3.68;68.59;102287.94;5017075;28;20418;-70
2021/04/13 00:55:44;;;;;;;6.83;6.23;;;;;;;3.82;68.13;102291.38;5000985;28;20472;-68
2021/04/13 00:58:36;;;;;;;9.03;7.10;;;;;;;4.11;68.02;102296.53;5014487;28;20854;-68
2021/04/13 01:01:21;;;;;;;8.13;7.17;;;;;;;3.95;67.07;102295.63;5017064;28;20517;-69
2021/04/13 01:04:01;;;;;;;8.50;6.90;;;;;;;4.14;67.17;102291.56;4997495;28;20510;-71
2021/04/13 01:06:28;;;;;;;7.63;6.80;;;;;;;3.89;68.00;102292.66;4998571;28;20432;-76
2021/04/13 01:09:10;;;;;;;7.90;6.77;;;;;;;3.86;67.42;102290.75;4998226;28;20416;-73
2021/04/13 01:11:46;;;;;;;8.27;7.00;;;;;;;3.98;67.87;102290.63;5000988;28;20410;-76
2021/04/13 01:14:12;;;;;;;7.10;6.40;;;;;;;3.62;69.02;102284.09;5002036;28;20462;-78
2021/04/13 01:16:47;;;;;;;9.13;7.47;;;;;;;3.59;68.52;102286.47;5003886;28;20504;-76
2021/04/13 01:19:37;;;;;;;7.30;6.63;;;;;;;3.54;69.82;102286.16;5021703;28;20182;-81
2021/04/13 01:22:13;;;;;;;9.93;6.23;;;;;;;3.62;68.80;102295.28;5027135;28;20421;-79
2021/04/13 01:24:46;;;;;;;8.60;6.83;;;;;;;3.66;68.38;102291.22;5025410;28;20781;-80
2021/04/13 01:27:12;;;;;;;7.17;6.37;;;;;;;3.41;69.83;102293.91;5021318;28;20425;-79
2021/04/13 01:29:38;;;;;;;7.23;6.53;;;;;;;3.65;68.64;102297.16;5021209;28;20422;-79
2021/04/13 01:32:05;;;;;;;7.97;6.20;;;;;;;3.22;70.24;102297.91;5024439;28;20498;-78
2021/04/13 01:34:37;;;;;;;7.07;6.37;;;;;;;3.75;69.19;102293.47;5024808;28;20409;-80
2021/04/13 01:37:10;;;;;;;6.90;5.90;;;;;;;3.32;69.73;102289.97;5026766;28;20465;-79
2021/04/13 01:39:44;;;;;;;6.30;5.70;;;;;;;3.33;70.12;102293.44;5022249;28;20785;-80
2021/04/13 01:42:10;;;;;;;7.63;6.40;;;;;;;3.68;68.32;102295.69;5020016;28;20695;-79
2021/04/13 01:45:01;;;;;;;8.13;6.17;;;;;;;3.49;70.41;102290.13;5020279;28;20423;-77
2021/04/13 01:47:30;;;;;;;6.87;6.13;;;;;;;3.56;70.30;102297.50;5018031;28;20182;-76
2021/04/13 01:49:58;;;;;;;8.70;6.90;;;;;;;3.71;68.43;102295.84;5020928;28;20453;-79
2021/04/13 01:52:38;;;;;;;8.07;6.90;;;;;;;3.83;70.34;102290.59;5014627;28;20525;-78
2021/04/13 01:55:10;;;;;;;6.20;5.60;;;;;;;3.55;69.38;102306.00;5003471;28;20580;-73
2021/04/13 01:57:51;;;;;;;8.87;5.63;;;;;;;3.60;70.09;102299.47;5003755;28;20418;-79
2021/04/13 02:00:24;;;;;;;6.53;5.90;;;;;;;3.56;69.35;102300.06;5019472;28;20571;-75
2021/04/13 02:02:53;;;;;;;7.23;5.97;;;;;;;3.36;70.33;102302.25;5019025;28;20523;-75
2021/04/13 02:05:21;;;;;;;6.60;6.00;;;;;;;3.23;71.25;102299.66;5019992;28;20664;-76
2021/04/13 02:07:58;;;;;;;9.17;6.13;;;;;;;3.47;70.40;102299.47;5019888;28;20418;-71
2021/04/13 02:10:31;;;;;;;7.73;6.30;;;;;;;3.31;70.74;102293.31;5003989;28;20511;-71
2021/04/13 02:13:14;;;;;;;8.27;6.00;;;;;;;3.70;70.57;102294.06;5019707;28;20556;-71
2021/04/13 02:15:46;;;;;;;7.03;5.47;;;;;;;3.26;71.36;102299.88;5019383;28;20464;-71
2021/04/13 02:18:22;;;;;;;9.27;5.87;;;;;;;3.32;70.60;102300.25;5003216;28;20450;-71
2021/04/13 02:20:50;;;;;;;8.90;6.33;;;;;;;3.63;69.98;102296.19;5019145;28;20450;-71
2021/04/13 02:23:23;;;;;;;11.13;6.10;;;;;;;3.44;70.38;102295.00;5003334;28;20406;-71
2021/04/13 02:25:48;;;;;;;6.53;5.87;;;;;;;3.46;70.35;102295.09;5000551;28;20709;-68
2021/04/13 02:28:15;;;;;;;7.50;5.90;;;;;;;3.58;69.92;102297.59;5000631;28;20422;-71
2021/04/13 02:30:46;;;;;;;7.57;6.77;;;;;;;3.45;70.82;102296.81;4982997;28;20317;-71
2021/04/13 02:33:17;;;;;;;10.03;6.60;;;;;;;3.41;70.39;102299.06;5000412;28;20419;-71
2021/04/13 02:35:43;;;;;;;10.47;6.30;;;;;;;3.33;70.38;102286.59;5000410;28;20439;-72
2021/04/13 02:38:13;;;;;;;7.23;6.10;;;;;;;3.12;71.43;102296.41;4999749;28;20677;-72
2021/04/13 02:40:38;;;;;;;6.17;5.50;;;;;;;3.25;70.57;102299.75;4982981;28;20187;-71
2021/04/13 02:43:10;;;;;;;8.10;6.40;;;;;;;3.39;70.02;102298.97;5000520;28;20422;-70
2021/04/13 02:45:44;;;;;;;9.47;6.47;;;;;;;3.26;70.42;102301.56;5000190;28;20167;-72
2021/04/13 02:48:14;;;;;;;8.57;6.20;;;;;;;3.23;71.36;102307.41;4998739;28;20774;-70
2021/04/13 02:50:44;;;;;;;7.77;6.20;;;;;;;3.54;69.41;102305.13;4983463;28;20414;-72
2021/04/13 02:53:11;;;;;;;8.80;6.17;;;;;;;3.27;70.90;102306.81;4999169;28;20501;-72
2021/04/13 02:55:39;;;;;;;7.60;6.90;;;;;;;3.18;71.21;102304.53;4999337;28;20455;-72
2021/04/13 02:58:07;;;;;;;10.80;6.30;;;;;;;3.69;71.07;102302.63;4983155;28;20445;-69
2021/04/13 03:00:36;;;;;;;8.27;6.67;;;;;;;3.66;69.38;102301.53;4982943;28;20418;-69
2021/04/13 03:03:07;;;;;;;7.50;5.80;;;;;;;3.21;70.29;102316.72;4983036;28;20445;-72
2021/04/13 03:05:34;;;;;;;6.47;5.33;;;;;;;3.32;70.79;102315.72;4998703;28;20441;-71
2021/04/13 03:08:04;;;;;;;7.03;5.73;;;;;;;3.51;70.71;102312.66;4998993;28;20427;-71
2021/04/13 03:10:32;;;;;;;7.53;5.30;;;;;;;3.55;69.59;102298.28;4982340;28;20762;-70
2021/04/13 03:13:05;;;;;;;8.43;5.57;;;;;;;3.57;69.69;102301.81;4982481;28;20457;-69
2021/04/13 03:15:31;;;;;;;10.67;5.40;;;;;;;3.29;71.31;102300.09;4999060;28;20498;-69
2021/04/13 03:17:59;;;;;;;6.47;5.77;;;;;;;3.17;71.24;102304.44;5000865;28;20435;-69
2021/04/13 03:20:32;;;;;;;7.13;5.30;;;;;;;3.21;71.40;102303.84;5003955;28;20450;-70
2021/04/13 03:22:59;;;;;;;6.13;5.53;;;;;;;3.17;71.33;102299.28;4981926;28;20438;-69
2021/04/13 03:25:34;;;;;;;9.67;6.00;;;;;;;3.36;70.44;102293.63;5012674;28;20726;-69
2021/04/13 03:28:01;;;;;;;6.57;5.77;;;;;;;3.47;69.66;102295.19;5019209;28;20688;-69
2021/04/13 03:30:31;;;;;;;9.60;5.50;;;;;;;3.34;71.07;102298.69;5019544;28;20426;-69
2021/04/13 03:33:08;;;;;;;7.77;5.80;;;;;;;3.44;70.40;102299.28;5016972;28;20532;-69
2021/04/13 03:35:33;;;;;;;10.00;6.40;;;;;;;3.42;70.15;102298.28;5018373;28;20568;-68
2021/04/13 03:38:01;;;;;;;6.17;5.57;;;;;;;3.27;71.00;102301.66;5018378;28;20711;-69
2021/04/13 03:40:27;;;;;;;8.47;5.73;;;;;;;3.18;71.69;102301.97;5018791;28;20187;-69
2021/04/13 03:43:10;;;;;;;8.80;6.10;;;;;;;3.49;70.53;102303.03;5005317;28;20453;-69
2021/04/13 03:45:36;;;;;;;9.20;6.40;;;;;;;3.30;71.03;102295.81;4999376;28;20469;-69
2021/04/13 03:48:09;;;;;;;8.63;5.57;;;;;;;3.45;70.61;102301.03;4999560;28;20505;-69
2021/04/13 03:50:40;;;;;;;11.90;6.80;;;;;;;3.30;70.93;102309.59;5014825;28;20505;-68
2021/04/13 03:53:30;;;;;;;8.10;5.70;;;;;;;3.15;71.22;102308.59;5013410;28;20733;-70
2021/04/13 03:55:59;;;;;;;9.80;5.43;;;;;;;3.50;70.98;102312.56;5018839;28;20461;-69
2021/04/13 03:58:26;;;;;;;8.03;5.60;;;;;;;3.23;72.20;102317.72;5018707;28;20448;-69
2021/04/13 04:00:53;;;;;;;7.53;5.93;;;;;;;3.48;71.38;102319.31;5015572;28;20449;-70
2021/04/13 04:03:19;;;;;;;9.30;6.30;;;;;;;3.41;72.14;102335.16;5018083;28;20410;-69
2021/04/13 04:05:51;;;;;;;15.57;6.63;;;;;;;3.54;70.98;102327.44;5018406;28;20447;-70
2021/04/13 04:08:41;;;;;;;9.27;5.90;;;;;;;3.50;70.94;102325.44;5018620;28;20175;-70
2021/04/13 04:11:08;;;;;;;8.20;6.47;;;;;;;3.52;70.81;102323.88;5016855;28;20452;-70
2021/04/13 04:13:48;;;;;;;10.53;6.50;;;;;;;3.42;71.84;102332.69;5018798;28;20409;-70
2021/04/13 04:16:18;;;;;;;7.80;6.13;;;;;;;3.30;71.95;102332.81;5018147;28;20462;-70
2021/04/13 04:18:45;;;;;;;11.17;6.70;;;;;;;3.20;71.68;102325.25;5018518;28;20751;-72
2021/04/13 04:21:17;;;;;;;7.80;6.80;;;;;;;3.38;71.01;102335.84;5016972;28;20452;-71
2021/04/13 04:23:43;;;;;;;9.50;5.93;;;;;;;3.40;71.56;102333.38;5016833;28;20632;-71
2021/04/13 04:26:10;;;;;;;7.90;6.00;;;;;;;3.29;70.59;102341.31;5018300;28;20527;-71
2021/04/13 04:28:36;;;;;;;9.80;7.30;;;;;;;3.59;70.65;102331.19;5018187;28;20442;-70
2021/04/13 04:31:35;;;;;;;7.70;6.60;;;;;;;3.46;71.10;102338.94;5016652;28;20846;-69
2021/04/13 04:34:13;;;;;;;8.93;6.10;;;;;;;3.42;70.95;102347.28;5019169;28;20671;-70
2021/04/13 04:36:42;;;;;;;11.03;7.57;;;;;;;3.25;72.28;102359.97;5018302;28;20457;-69
2021/04/13 04:39:33;;;;;;;11.73;7.50;;;;;;;3.11;72.04;102361.63;5017805;28;20505;-68
2021/04/13 04:42:06;;;;;;;8.00;6.37;;;;;;;3.54;70.99;102360.94;5017560;28;20456;-69
2021/04/13 04:44:32;;;;;;;6.93;6.10;;;;;;;3.87;69.25;102367.38;5019132;28;20655;-70
2021/04/13 04:47:01;;;;;;;7.17;5.80;;;;;;;3.64;70.63;102365.00;5022150;28;20421;-69
2021/04/13 04:49:37;;;;;;;7.37;5.73;;;;;;;3.67;70.30;102362.63;5012357;28;20549;-69
2021/04/13 04:52:02;;;;;;;8.83;6.00;;;;;;;3.42;71.38;102367.91;5016237;28;20433;-69
2021/04/13 04:54:28;;;;;;;8.50;6.30;;;;;;;3.68;70.72;102365.31;5019400;28;20420;-69
2021/04/13 04:56:53;;;;;;;10.80;6.40;;;;;;;3.97;69.44;102367.97;5010410;28;20209;-71
2021/04/13 04:59:18;;;;;;;7.53;5.93;;;;;;;4.09;68.66;102362.69;5022476;28;20167;-70
2021/04/13 05:01:44;;;;;;;7.37;5.93;;;;;;;4.01;70.78;102368.22;5010401;28;20453;-71
2021/04/13 05:04:09;;;;;;;9.20;6.20;;;;;;;3.97;69.84;102366.25;5011781;28;20182;-70
2021/04/13 05:06:34;;;;;;;11.37;6.57;;;;;;;3.65;70.83;102367.72;5021916;28;20182;-69
2021/04/13 05:09:00;;;;;;;7.10;5.60;;;;;;;3.81;70.32;102366.09;5021175;28;20186;-70
2021/04/13 05:11:25;;;;;;;6.50;5.90;;;;;;;3.98;70.58;102368.06;5021985;28;20563;-70
2021/04/13 05:13:51;;;;;;;9.40;5.60;;;;;;;3.64;70.68;102363.34;5020926;28;20195;-70
2021/04/13 05:16:17;;;;;;;10.87;5.70;;;;;;;3.81;69.08;102368.66;5024432;28;20211;-71
2021/04/13 05:18:42;;;;;;;6.30;5.37;;;;;;;3.97;69.56;102371.41;5014815;28;20422;-70
2021/04/13 05:21:08;;;;;;;9.30;5.80;;;;;;;3.85;69.69;102370.66;5001721;28;20176;-70
2021/04/13 05:23:34;;;;;;;11.50;5.90;;;;;;;3.75;69.74;102378.59;4995530;28;20209;-71
2021/04/13 05:25:59;;;;;;;8.10;5.77;;;;;;;3.58;70.66;102377.53;5004560;28;20547;-72
2021/04/13 05:28:24;;;;;;;9.47;5.87;;;;;;;4.49;68.46;102384.09;5021497;28;20434;-70
2021/04/13 05:30:50;;;;;;;7.17;6.30;;;;;;;4.28;69.23;102382.78;5021415;28;20483;-70
2021/04/13 05:33:17;;;;;;;7.63;6.33;;;;;;;4.33;68.56;102389.09;5021728;28;20173;-70
2021/04/13 05:35:42;;;;;;;6.87;6.10;;;;;;;4.53;67.21;102383.47;5010368;28;20573;-72
2021/04/13 05:38:16;;;;;;;9.97;6.00;;;;;;;4.00;70.99;102396.53;5001756;28;20521;-71
2021/04/13 05:40:42;;;;;;;12.07;6.27;;;;;;;4.13;69.79;102398.22;5000715;28;20209;-69
2021/04/13 05:43:10;;;;;;;12.53;6.73;;;;;;;4.22;69.57;102396.16;5000971;28;20442;-71
2021/04/13 05:45:37;;;;;;;8.47;6.10;;;;;;;4.22;69.10;102394.50;5002002;28;20168;-71
2021/04/13 05:48:03;;;;;;;9.47;6.80;;;;;;;4.22;70.00;102398.75;5000595;28;20427;-70
2021/04/13 05:50:31;;;;;;;7.93;5.80;;;;;;;6.45;62.52;102396.03;5001151;28;20423;-70
2021/04/13 05:52:56;;;;;;;9.27;6.07;;;;;;;7.48;58.33;102395.22;5001900;28;20414;-70
2021/04/13 05:55:22;;;;;;;6.47;5.00;;;;;;;7.58;57.45;102402.66;5000824;28;20465;-71
2021/04/13 05:57:50;;;;;;;5.93;4.80;;;;;;;7.23;59.96;102392.28;5000896;28;20552;-69
2021/04/13 06:00:16;;;;;;;7.07;5.23;;;;;;;5.44;64.18;102412.88;5002268;28;20249;-70
2021/04/13 06:02:43;;;;;;;7.70;5.20;;;;;;;5.23;65.12;102414.31;5027061;28;20528;-71
2021/04/13 06:05:10;;;;;;;11.03;6.30;;;;;;;5.35;65.53;102418.44;5023040;28;20537;-71
2021/04/13 06:07:36;;;;;;;7.00;5.03;;;;;;;5.20;66.22;102414.13;4984530;28;20407;-71
2021/04/13 06:10:01;;;;;;;11.10;5.23;;;;;;;5.78;64.86;102422.56;5032753;28;20499;-71
2021/04/13 06:12:27;;;;;;;5.57;4.87;;;;;;;5.20;66.04;102416.72;5022132;28;20205;-71
2021/04/13 06:14:53;;;;;;;7.53;4.53;;;;;;;5.08;66.73;102422.88;5020496;28;20167;-72
2021/04/13 06:17:19;;;;;;;8.70;6.10;;;;;;;4.41;68.80;102431.81;5011880;28;20198;-71
2021/04/13 06:19:44;;;;;;;9.57;5.17;;;;;;;4.72;67.69;102429.41;5021939;28;20428;-71
2021/04/13 06:22:10;;;;;;;8.13;4.80;;;;;;;4.86;67.70;102429.34;5016293;28;20258;-71
2021/04/13 06:24:35;;;;;;;8.23;4.90;;;;;;;4.64;69.15;102428.06;5000324;28;20604;-72
2021/04/13 06:27:01;;;;;;;7.87;5.27;;;;;;;4.90;69.69;102433.91;5001286;28;20246;-71
2021/04/13 06:29:26;;;;;;;8.20;4.70;;;;;;;4.85;68.67;102437.91;5020388;28;20187;-71
2021/04/13 06:31:51;;;;;;;10.20;5.10;;;;;;;5.34;66.51;102439.91;5019049;28;20612;-69
2021/04/13 06:34:17;;;;;;;16.50;5.30;;;;;;;5.80;66.00;102433.91;5020830;28;20547;-72
2021/04/13 06:36:43;;;;;;;8.00;4.77;;;;;;;5.62;65.71;102429.47;5026140;28;20257;-71
2021/04/13 06:39:08;;;;;;;5.20;4.30;;;;;;;4.91;67.40;102443.41;4999486;28;20446;-70
2021/04/13 06:41:50;;;;;;;7.60;4.90;;;;;;;5.66;64.88;102436.59;5002540;28;20180;-70
2021/04/13 06:44:34;;;;;;;8.63;5.50;;;;;;;8.75;55.85;102415.88;5018898;28;20481;-70
2021/04/13 06:47:06;;;;;;;5.67;4.60;;;;;;;10.26;50.95;102417.66;5013705;28;20542;-72
2021/04/13 06:50:14;;;;;;;5.13;4.13;;;;;;;8.34;54.11;102421.78;5013555;28;20441;-71
2021/04/13 06:52:42;;;;;;;5.27;3.37;;;;;;;10.06;50.51;102427.31;5018586;28;20725;-71
2021/04/13 06:55:17;;;;;;;7.13;4.20;;;;;;;10.70;48.14;102425.38;5018701;28;20451;-71
2021/04/13 06:57:58;;;;;;;6.27;4.17;;;;;;;10.78;47.98;102440.50;5018117;28;20445;-70
2021/04/13 07:00:36;;;;;;;7.90;4.80;;;;;;;10.97;47.77;102437.63;5018834;28;20423;-70
2021/04/13 07:03:12;;;;;;;5.83;4.33;;;;;;;10.20;49.28;102440.88;5018536;28;20433;-71
2021/04/13 07:05:46;;;;;;;4.40;4.00;;;;;;;10.72;48.59;102450.69;5018245;28;20845;-70
2021/04/13 07:08:22;;;;;;;4.53;3.40;;;;;;;8.40;53.32;102455.84;5019208;28;20821;-70
2021/04/13 07:10:54;;;;;;;4.60;3.23;;;;;;;8.49;54.24;102456.28;5021784;28;20416;-70
2021/04/13 07:13:41;;;;;;;6.20;3.40;;;;;;;8.31;55.36;102460.59;5000052;28;20438;-70
2021/04/13 07:16:15;;;;;;;5.30;3.80;;;;;;;8.13;56.46;102463.22;5022632;28;20468;-71
2021/04/13 07:19:15;;;;;;;8.43;3.00;;;;;;;9.93;51.16;102451.97;5018607;28;20449;-70
2021/04/13 07:22:08;;;;;;;7.27;4.63;;;;;;;11.33;46.48;102451.09;4979105;28;20710;-71
2021/04/13 07:25:05;;;;;;;9.30;4.93;;;;;;;11.70;46.34;102446.19;5007632;28;20448;-70
2021/04/13 07:27:44;;;;;;;6.20;3.63;;;;;;;11.80;44.31;102446.53;5018224;28;20424;-72
2021/04/13 07:30:24;;;;;;;5.77;3.60;;;;;;;12.40;43.18;102446.66;5016786;28;20426;-72
2021/04/13 07:32:55;;;;;;;4.70;3.10;;;;;;;11.18;46.06;102458.41;5018024;28;20713;-71
2021/04/13 07:35:22;;;;;;;5.77;3.30;;;;;;;11.01;47.20;102450.84;5018076;28;20807;-71
2021/04/13 07:37:50;;;;;;;5.07;3.20;;;;;;;12.63;43.14;102447.31;5018752;28;20419;-71
2021/04/13 07:40:37;;;;;;;6.23;3.37;;;;;;;13.04;42.39;102444.94;5016290;28;20706;-70
2021/04/13 07:43:19;;;;;;;5.87;2.97;;;;;;;13.11;41.58;102452.13;5017563;28;20439;-72
2021/04/13 07:45:56;;;;;;;5.70;3.00;;;;;;;13.97;39.59;102449.91;5018590;28;20383;-71
2021/04/13 07:48:25;;;;;;;5.47;2.90;;;;;;;14.99;38.21;102444.16;5018627;28;20423;-74
2021/04/13 07:51:32;;;;;;;6.33;3.10;;;;;;;12.50;41.89;102455.66;5016801;28;21203;-73
2021/04/13 07:54:06;;;;;;;4.73;2.80;;;;;;;11.01;46.65;102465.63;5006395;28;20456;-71
2021/04/13 07:56:47;;;;;;;4.00;2.77;;;;;;;11.39;46.83;102469.59;5017712;28;20574;-71
2021/04/13 07:59:34;;;;;;;4.80;3.13;;;;;;;10.56;47.42;102469.22;5017530;28;20845;-71
2021/04/13 08:01:59;;;;;;;6.47;3.03;;;;;;;10.75;47.13;102469.06;5018397;28;20376;-72
2021/04/13 08:04:27;;;;;;;4.70;2.90;;;;;;;10.46;48.54;102486.25;5018396;28;20413;-72
2021/04/13 08:06:55;;;;;;;6.40;3.07;;;;;;;10.50;49.04;102487.22;5016794;28;20211;-72
2021/04/13 08:09:23;;;;;;;8.50;3.60;;;;;;;12.45;44.94;102472.09;5028000;28;20433;-71
2021/04/13 08:12:13;;;;;;;5.53;3.70;;;;;;;13.85;40.96;102467.97;5038028;28;20413;-72
2021/04/13 08:14:42;;;;;;;7.00;3.40;;;;;;;14.24;40.29;102465.38;5038026;28;20503;-72
2021/04/13 08:17:14;;;;;;;7.10;3.83;;;;;;;14.35;39.54;102470.84;5031871;28;20465;-72
2021/04/13 08:19:41;;;;;;;9.07;3.80;;;;;;;12.64;43.94;102480.50;5014365;28;20704;-72
2021/04/13 08:22:16;;;;;;;6.93;4.20;;;;;;;13.55;42.06;102472.50;5016914;28;20461;-73
2021/04/13 08:24:48;;;;;;;9.13;3.30;;;;;;;14.91;37.73;102456.25;5008781;28;20474;-72
2021/04/13 08:27:26;;;;;;;7.80;3.53;;;;;;;14.57;39.23;102469.59;5000115;28;20482;-74
2021/04/13 08:30:03;;;;;;;10.33;4.40;;;;;;;15.02;38.64;102462.63;5010324;28;20433;-73
2021/04/13 08:32:52;;;;;;;9.80;4.30;;;;;;;14.84;38.80;102470.13;5004583;28;20508;-72
2021/04/13 08:35:20;;;;;;;5.00;3.90;;;;;;;14.56;39.35;102469.53;5001184;28;20381;-73
2021/04/13 08:37:56;;;;;;;6.80;4.47;;;;;;;14.10;40.21;102457.19;5016769;28;20502;-74
2021/04/13 08:40:23;;;;;;;12.37;4.47;;;;;;;16.38;35.74;102450.78;4999291;28;20441;-71
2021/04/13 08:42:58;;;;;;;6.87;4.03;;;;;;;15.94;37.19;102467.69;5016589;28;20443;-73
2021/04/13 08:45:37;;;;;;;8.07;4.20;;;;;;;17.57;33.48;102438.84;5016958;28;20495;-73
2021/04/13 08:48:21;;;;;;;12.77;4.63;;;;;;;17.31;32.81;102445.66;5016487;28;20524;-73
2021/04/13 08:50:52;;;;;;;7.70;4.10;;;;;;;15.08;36.33;102454.84;5016956;28;20512;-73
2021/04/13 08:53:37;;;;;;;9.27;4.20;;;;;;;16.04;35.00;102450.31;5014375;28;20438;-73
2021/04/13 08:56:12;;;;;;;6.93;3.80;;;;;;;15.72;36.60;102451.56;5012062;28;20535;-74
2021/04/13 08:58:44;;;;;;;5.43;4.00;;;;;;;15.27;37.42;102458.69;4998832;28;20417;-73
2021/04/13 09:01:35;;;;;;;10.07;4.40;;;;;;;15.37;36.85;102454.50;5009956;28;20500;-75
2021/04/13 09:04:03;;;;;;;6.23;4.20;;;;;;;15.79;35.54;102440.28;5015720;28;20422;-73
2021/04/13 09:07:13;;;;;;;11.13;5.00;;;;;;;14.35;37.53;102446.38;5015171;28;20532;-73
2021/04/13 09:09:51;;;;;;;9.63;4.10;;;;;;;15.73;35.81;102437.53;4942376;29;20435;-75
2021/04/13 09:12:16;;;;;;;7.13;3.90;;;;;;;16.37;33.85;102431.44;4943102;29;20447;-73
2021/04/13 09:14:54;;;;;;;8.60;4.10;;;;;;;16.38;34.11;102432.34;5001544;28;20469;-72
2021/04/13 09:17:20;;;;;;;9.57;4.37;;;;;;;14.64;36.64;102444.38;5012048;28;20301;-73
2021/04/13 09:20:04;;;;;;;8.87;4.43;;;;;;;12.11;42.54;102458.00;5013895;28;20484;-75
2021/04/13 09:22:35;;;;;;;7.03;4.13;;;;;;;11.87;44.46;102462.44;5012214;28;20237;-74
2021/04/13 09:25:30;;;;;;;11.93;4.47;;;;;;;11.71;44.96;102456.69;5028683;28;20488;-73
2021/04/13 09:28:12;;;;;;;10.30;3.80;;;;;;;12.08;42.41;102462.22;4998091;28;20414;-73
2021/04/13 09:31:00;;;;;;;6.47;3.53;;;;;;;14.30;37.55;102446.25;5010582;28;20424;-73
2021/04/13 09:33:32;;;;;;;7.63;4.10;;;;;;;15.47;34.01;102435.38;5020914;28;20424;-74
2021/04/13 09:36:22;;;;;;;9.80;3.80;;;;;;;16.09;31.51;102439.00;5018718;28;20481;-74
2021/04/13 09:39:15;;;;;;;8.57;3.83;;;;;;;16.37;29.26;102428.81;5020752;28;20445;-74
2021/04/13 09:42:05;;;;;;;6.60;3.20;;;;;;;16.52;28.96;102419.34;5018111;28;20432;-75
2021/04/13 09:45:04;;;;;;;6.20;3.83;;;;;;;15.34;31.80;102436.03;5013038;28;20437;-75
2021/04/13 09:47:44;;;;;;;11.13;3.83;;;;;;;14.49;32.86;102431.78;5012826;28;20720;-72
2021/04/13 09:50:51;;;;;;;8.20;3.97;;;;;;;15.09;31.44;102437.34;5033106;28;20750;-70
2021/04/13 09:53:43;;;;;;;8.03;3.80;;;;;;;16.43;28.00;102417.50;4990526;28;20476;-71
2021/04/13 09:56:36;;;;;;;8.73;3.27;;;;;;;16.21;26.70;102418.97;5011287;28;20489;-71
2021/04/13 09:59:17;;;;;;;5.43;3.30;;;;;;;16.87;26.26;102413.59;5016518;28;20446;-71
2021/04/13 10:01:57;;;;;;;6.13;3.73;;;;;;;17.00;26.64;102419.03;5009010;28;20453;-72
2021/04/13 10:04:36;;;;;;;6.73;3.57;;;;;;;16.52;28.07;102409.72;5019577;28;21223;-71
2021/04/13 10:07:17;;;;;;;7.87;3.70;;;;;;;14.47;29.71;102431.75;5020197;28;20414;-72
2021/04/13 10:09:44;;;;;;;6.73;3.67;;;;;;;16.19;27.29;102421.56;5032759;28;20809;-73
2021/04/13 10:12:36;;;;;;;8.40;3.80;;;;;;;17.61;26.03;102412.50;5039839;28;20848;-71
2021/04/13 10:15:36;;;;;;;6.43;3.87;;;;;;;17.95;25.14;102404.84;5036998;28;20429;-72
2021/04/13 10:18:36;;;;;;;5.50;2.80;;;;;;;16.21;26.72;102419.84;5019591;28;20430;-70
2021/04/13 10:21:14;;;;;;;6.63;3.43;;;;;;;15.91;27.61;102422.94;5020210;28;20420;-70
2021/04/13 10:23:53;;;;;;;8.03;3.57;;;;;;;13.58;32.74;102432.38;5017009;28;20705;-71
2021/04/13 10:26:24;;;;;;;7.00;3.60;;;;;;;12.17;36.31;102461.66;5006076;28;20446;-71
2021/04/13 10:29:12;;;;;;;7.17;3.50;;;;;;;12.55;36.01;102461.91;5020359;28;20380;-71
2021/04/13 10:31:56;;;;;;;12.13;3.57;;;;;;;11.96;36.17;102452.28;5018403;28;20420;-70
2021/04/13 10:34:46;;;;;;;6.37;4.13;;;;;;;12.36;35.84;102448.28;5019309;28;20420;-71
2021/04/13 10:37:51;;;;;;;7.63;3.70;;;;;;;12.08;37.71;102450.06;5002998;28;20490;-71
2021/04/13 10:40:47;;;;;;;7.83;3.83;;;;;;;12.33;37.49;102437.72;5018893;28;20404;-71
2021/04/13 10:43:58;;;;;;;8.27;4.33;;;;;;;14.42;34.17;102430.78;5016110;28;20411;-71
2021/04/13 10:46:30;;;;;;;12.10;3.97;;;;;;;14.88;33.76;102424.72;5018780;28;20422;-71
2021/04/13 10:49:21;;;;;;;7.43;3.60;;;;;;;14.91;32.40;102425.66;5017894;28;20701;-72
2021/04/13 10:52:09;;;;;;;9.93;3.90;;;;;;;16.05;31.10;102424.03;5016332;28;20434;-73
2021/04/13 10:54:42;;;;;;;10.10;3.70;;;;;;;16.35;30.56;102409.50;5017972;28;20415;-73
2021/04/13 10:57:42;;;;;;;6.07;3.57;;;;;;;16.11;33.39;102407.44;5018871;28;20461;-71
2021/04/13 11:00:25;;;;;;;11.17;3.67;;;;;;;16.74;28.17;102396.78;4969515;28;20811;-76
2021/04/13 11:02:57;;;;;;;5.07;3.63;;;;;;;16.68;27.13;102400.22;5018399;28;20472;-71
2021/04/13 11:05:39;;;;;;;6.73;4.53;;;;;;;15.44;29.34;102411.69;5019480;28;20491;-75
2021/04/13 11:08:23;;;;;;;7.20;3.47;;;;;;;13.85;30.83;102418.16;5017955;28;20414;-77
2021/04/13 11:10:57;;;;;;;10.23;3.53;;;;;;;14.75;29.09;102413.97;5009904;28;20418;-72
2021/04/13 11:13:41;;;;;;;7.53;3.60;;;;;;;14.83;29.30;102416.75;5021522;28;20671;-73
2021/04/13 11:16:22;;;;;;;6.30;3.33;;;;;;;14.40;28.34;102410.63;4995556;28;20445;-72
2021/04/13 11:18:56;;;;;;;4.37;3.23;;;;;;;14.57;28.61;102401.34;5017249;28;20857;-72
2021/04/13 11:21:42;;;;;;;6.77;3.43;;;;;;;15.21;26.98;102413.03;5018880;28;20416;-72
2021/04/13 11:24:23;;;;;;;10.23;3.47;;;;;;;15.62;27.53;102397.06;5018234;28;20478;-72
2021/04/13 11:26:52;;;;;;;7.30;3.30;;;;;;;16.17;27.92;102402.25;5018467;28;20830;-71
2021/04/13 11:29:41;;;;;;;4.90;3.30;;;;;;;17.24;27.37;102393.78;5007047;28;20384;-71
2021/04/13 11:32:28;;;;;;;5.87;3.43;;;;;;;16.49;27.87;102407.94;5017985;28;20869;-71
2021/04/13 11:35:13;;;;;;;7.83;3.40;;;;;;;17.36;26.48;102397.38;5001859;28;20680;-69
2021/04/13 11:37:55;;;;;;;11.20;3.73;;;;;;;17.32;26.49;102389.44;5001079;28;20488;-73
2021/04/13 11:41:15;;;;;;;8.30;5.07;;;;;;;16.10;27.21;102396.03;4998862;28;20415;-71
2021/04/13 11:44:11;;;;;;;7.63;3.80;;;;;;;16.07;28.22;102389.84;4985106;28;20437;-76
2021/04/13 11:47:14;;;;;;;5.90;3.30;;;;;;;15.99;27.69;102392.34;4996491;28;20393;-73
2021/04/13 11:50:01;;;;;;;5.13;3.40;;;;;;;15.11;27.68;102401.47;5017773;28;20433;-71
2021/04/13 11:52:29;;;;;;;7.50;3.50;;;;;;;15.86;27.72;102391.31;5010054;28;20449;-71
2021/04/13 11:54:55;;;;;;;6.47;3.57;;;;;;;13.92;29.84;102399.09;5017283;28;20492;-71
2021/04/13 11:57:20;;;;;;;7.63;3.90;;;;;;;13.33;33.27;102416.03;4998692;28;20470;-70
2021/04/13 12:00:10;;;;;;;5.87;3.73;;;;;;;12.91;34.03;102421.91;5003146;28;20206;-71
2021/04/13 12:02:38;;;;;;;6.37;4.00;;;;;;;12.87;35.60;102420.94;5017909;28;20179;-71
2021/04/13 12:05:04;;;;;;;7.30;4.03;;;;;;;11.88;35.71;102425.88;5017007;28;20811;-71
2021/04/13 12:07:47;;;;;;;8.10;3.30;;;;;;;11.87;34.95;102436.28;5017665;28;20417;-71